Time;durP1;ratioP1;P1;durP2;ratioP2;P2;SDS_P1;SDS_P2;PMS_P1;PMS_P2;Temp;Humidity;BMP_temperature;BMP_pressure;BME280_temperature;BME280_humidity;BME280_pressure;Samples;Min_cycle;Max_cycle;Signal;HPM_P1;HPM_P2
2021/10/20 00:00:07;;;;;;;22.65;13.52;;;;;;;;;;5093159;28;20032;-75
2021/10/20 00:02:38;;;;;;;20.17;13.02;;;;;;;;;;5093872;28;20376;-76
2021/10/20 00:05:04;;;;;;;19.35;13.20;;;;;;;;;;5093544;28;20373;-75
2021/10/20 00:07:30;;;;;;;19.63;13.85;;;;;;;;;;5092806;28;20028;-75
2021/10/20 00:09:55;;;;;;;19.38;13.10;;;;;;;;;;5093582;28;20092;-75
2021/10/20 00:12:21;;;;;;;18.88;12.18;;;;;;;;;;5093439;28;20032;-75
2021/10/20 00:14:47;;;;;;;19.77;12.57;;;;;;;;;;5091710;28;20110;-75
2021/10/20 00:17:12;;;;;;;16.52;12.50;;;;;;;;;;5092195;28;20036;-75
2021/10/20 00:19:37;;;;;;;19.70;11.50;;;;;;;;;;5093624;28;20093;-75
2021/10/20 00:22:03;;;;;;;16.25;11.57;;;;;;;;;;5093387;28;20107;-76
2021/10/20 00:24:28;;;;;;;19.42;11.70;;;;;;;;;;5093209;28;20082;-76
2021/10/20 00:26:54;;;;;;;19.98;13.55;;;;;;;;;;5093451;28;20082;-75
2021/10/20 00:29:19;;;;;;;15.70;12.57;;;;;;;;;;5093025;28;20068;-75
2021/10/20 00:31:44;;;;;;;19.83;14.05;;;;;;;;;;5092565;28;20032;-75
2021/10/20 00:34:10;;;;;;;19.77;14.02;;;;;;;;;;5093161;28;20036;-75
2021/10/20 00:36:35;;;;;;;13.55;10.25;;;;;;;;;;5093018;28;20054;-75
2021/10/20 00:39:01;;;;;;;12.02;8.40;;;;;;;;;;5092918;28;20034;-76
2021/10/20 00:41:29;;;;;;;12.55;10.10;;;;;;;;;;5093108;28;20119;-75
2021/10/20 00:43:55;;;;;;;16.80;11.88;;;;;;;;;;5092082;28;20032;-75
2021/10/20 00:46:28;;;;;;;18.52;14.23;;;;;;;;;;5092972;28;20042;-75
2021/10/20 00:48:55;;;;;;;10.88;9.20;;;;;;;;;;5093179;28;20375;-75
2021/10/20 00:51:25;;;;;;;11.82;8.30;;;;;;;;;;5092106;28;20103;-75
2021/10/20 00:53:52;;;;;;;16.15;10.65;;;;;;;;;;5092934;28;20028;-75
2021/10/20 00:56:17;;;;;;;12.98;8.82;;;;;;;;;;5093107;28;20063;-75
2021/10/20 00:58:42;;;;;;;17.55;11.88;;;;;;;;;;5092787;28;20064;-75
2021/10/20 01:01:08;;;;;;;18.40;12.82;;;;;;;;;;5092859;28;20124;-75
2021/10/20 01:03:33;;;;;;;19.52;13.60;;;;;;;;;;5092967;28;20040;-75
2021/10/20 01:05:59;;;;;;;21.13;15.20;;;;;;;;;;5093254;28;20085;-75
2021/10/20 01:08:24;;;;;;;25.65;14.75;;;;;;;;;;5092897;28;20040;-75
2021/10/20 01:10:49;;;;;;;18.70;13.50;;;;;;;;;;5091130;28;20119;-75
2021/10/20 01:13:15;;;;;;;18.27;12.70;;;;;;;;;;5091208;28;20042;-75
2021/10/20 01:15:40;;;;;;;20.38;11.63;;;;;;;;;;5092664;28;20397;-75
2021/10/20 01:18:06;;;;;;;15.52;11.27;;;;;;;;;;5093321;28;20389;-76
2021/10/20 01:20:33;;;;;;;17.42;13.10;;;;;;;;;;5095950;28;20073;-75
2021/10/20 01:22:59;;;;;;;18.80;13.77;;;;;;;;;;5096571;28;20035;-76
2021/10/20 01:25:25;;;;;;;21.15;14.18;;;;;;;;;;5095642;28;20477;-75
2021/10/20 01:27:51;;;;;;;22.05;15.27;;;;;;;;;;5096564;28;20111;-75
2021/10/20 01:30:16;;;;;;;19.75;12.95;;;;;;;;;;5096174;28;20032;-75
2021/10/20 01:32:42;;;;;;;15.95;11.75;;;;;;;;;;5096616;28;20447;-76
2021/10/20 01:35:09;;;;;;;17.60;11.98;;;;;;;;;;5095429;28;20036;-75
2021/10/20 01:37:34;;;;;;;20.60;12.80;;;;;;;;;;5096249;28;20421;-75
2021/10/20 01:40:00;;;;;;;18.73;11.80;;;;;;;;;;5096039;28;20071;-76
2021/10/20 01:42:27;;;;;;;17.92;9.98;;;;;;;;;;5096707;28;20381;-75
2021/10/20 01:44:53;;;;;;;18.33;10.43;;;;;;;;;;5095100;28;20032;-75
2021/10/20 01:47:19;;;;;;;17.63;12.00;;;;;;;;;;5095984;28;20047;-75
2021/10/20 01:49:46;;;;;;;14.75;10.43;;;;;;;;;;5096204;28;20516;-75
2021/10/20 01:52:11;;;;;;;13.18;10.55;;;;;;;;;;5095729;28;20044;-75
2021/10/20 01:54:37;;;;;;;13.02;9.68;;;;;;;;;;5096105;28;20123;-76
2021/10/20 01:57:02;;;;;;;15.18;8.95;;;;;;;;;;5096196;28;20059;-75
2021/10/20 01:59:28;;;;;;;13.05;8.60;;;;;;;;;;5095965;28;20028;-75
2021/10/20 02:01:53;;;;;;;10.93;8.02;;;;;;;;;;5095663;28;20040;-75
2021/10/20 02:04:19;;;;;;;11.18;9.02;;;;;;;;;;5096000;28;20172;-75
2021/10/20 02:06:44;;;;;;;13.07;8.13;;;;;;;;;;5095829;28;20405;-75
2021/10/20 02:09:11;;;;;;;11.15;7.88;;;;;;;;;;5095573;28;20504;-75
2021/10/20 02:11:38;;;;;;;15.10;7.43;;;;;;;;;;5095822;28;20024;-75
2021/10/20 02:14:08;;;;;;;13.95;7.30;;;;;;;;;;5094769;28;20032;-75
2021/10/20 02:16:34;;;;;;;10.52;6.22;;;;;;;;;;5095601;28;20028;-77
2021/10/20 02:19:00;;;;;;;10.85;6.68;;;;;;;;;;5095810;28;20035;-76
2021/10/20 02:21:25;;;;;;;10.95;6.25;;;;;;;;;;5096217;28;20036;-77
2021/10/20 02:23:51;;;;;;;7.55;5.68;;;;;;;;;;5095599;28;20051;-77
2021/10/20 02:26:16;;;;;;;7.70;6.30;;;;;;;;;;5095589;28;20089;-77
2021/10/20 02:28:42;;;;;;;12.60;7.40;;;;;;;;;;5095616;28;20477;-76
2021/10/20 02:31:07;;;;;;;9.52;6.70;;;;;;;;;;5095336;28;20060;-79
2021/10/20 02:33:33;;;;;;;7.93;6.32;;;;;;;;;;5096215;28;20040;-77
2021/10/20 02:35:58;;;;;;;10.73;6.90;;;;;;;;;;5096520;28;20053;-77
2021/10/20 02:38:24;;;;;;;9.32;6.30;;;;;;;;;;5095760;28;20559;-77
2021/10/20 02:40:50;;;;;;;10.27;6.63;;;;;;;;;;5096182;28;20040;-77
2021/10/20 02:43:16;;;;;;;8.23;5.90;;;;;;;;;;5096945;28;20036;-77
2021/10/20 02:45:41;;;;;;;9.55;6.85;;;;;;;;;;5097254;28;20371;-77
2021/10/20 02:48:07;;;;;;;8.48;6.18;;;;;;;;;;5096267;28;20039;-77
2021/10/20 02:50:32;;;;;;;11.00;6.13;;;;;;;;;;5095171;28;20088;-77
2021/10/20 02:52:57;;;;;;;10.90;6.18;;;;;;;;;;5096150;28;20039;-77
2021/10/20 02:55:23;;;;;;;8.63;5.43;;;;;;;;;;5095470;28;20035;-77
2021/10/20 02:57:49;;;;;;;9.57;6.50;;;;;;;;;;5094885;28;20144;-76
2021/10/20 03:00:15;;;;;;;8.90;5.80;;;;;;;;;;5094647;28;20047;-77
2021/10/20 03:02:41;;;;;;;9.45;5.55;;;;;;;;;;5095651;28;20031;-77
2021/10/20 03:05:07;;;;;;;9.70;6.32;;;;;;;;;;5098713;28;20047;-79
2021/10/20 03:07:33;;;;;;;7.93;5.75;;;;;;;;;;5099472;28;20020;-79
2021/10/20 03:09:58;;;;;;;11.00;5.80;;;;;;;;;;5080525;28;20036;-79
2021/10/20 03:12:23;;;;;;;14.25;7.85;;;;;;;;;;5099206;28;20036;-78
2021/10/20 03:14:49;;;;;;;9.48;6.03;;;;;;;;;;5099458;28;20378;-78
2021/10/20 03:17:16;;;;;;;9.50;6.20;;;;;;;;;;5099105;28;20028;-78
2021/10/20 03:19:41;;;;;;;13.52;6.38;;;;;;;;;;5096938;28;20031;-78
2021/10/20 03:22:07;;;;;;;10.40;6.97;;;;;;;;;;5098282;28;20651;-79
2021/10/20 03:24:34;;;;;;;9.23;6.28;;;;;;;;;;5098363;28;20170;-79
2021/10/20 03:27:00;;;;;;;13.80;6.22;;;;;;;;;;5098209;28;20181;-79
2021/10/20 03:29:25;;;;;;;12.20;6.20;;;;;;;;;;5097611;28;20488;-78
2021/10/20 03:31:50;;;;;;;7.45;5.50;;;;;;;;;;5097878;28;20123;-79
2021/10/20 03:34:16;;;;;;;7.72;6.35;;;;;;;;;;5097452;28;20035;-78
2021/10/20 03:36:41;;;;;;;8.88;5.95;;;;;;;;;;5096885;28;20062;-78
2021/10/20 03:39:06;;;;;;;14.75;6.43;;;;;;;;;;5096486;28;20036;-78
2021/10/20 03:41:32;;;;;;;8.82;6.03;;;;;;;;;;5097101;28;20035;-78
2021/10/20 03:43:57;;;;;;;8.55;6.47;;;;;;;;;;5096764;28;20036;-79
2021/10/20 03:46:22;;;;;;;10.05;6.18;;;;;;;;;;5097163;28;20027;-79
2021/10/20 03:48:48;;;;;;;10.00;6.57;;;;;;;;;;5097136;28;20366;-79
2021/10/20 03:51:13;;;;;;;7.45;5.95;;;;;;;;;;5097284;28;20036;-78
2021/10/20 03:53:38;;;;;;;13.48;7.07;;;;;;;;;;5096165;28;20192;-78
2021/10/20 03:56:04;;;;;;;9.48;6.95;;;;;;;;;;5096808;28;20109;-78
2021/10/20 03:58:29;;;;;;;14.57;6.28;;;;;;;;;;5096225;28;20110;-78
2021/10/20 04:00:57;;;;;;;11.63;6.18;;;;;;;;;;5097074;28;20495;-78
2021/10/20 04:03:22;;;;;;;13.00;6.68;;;;;;;;;;5095024;28;20054;-78
2021/10/20 04:05:47;;;;;;;10.35;6.85;;;;;;;;;;5096364;28;20389;-78
2021/10/20 04:08:13;;;;;;;14.20;8.63;;;;;;;;;;5096227;28;20092;-78
2021/10/20 04:10:38;;;;;;;12.43;8.32;;;;;;;;;;5095585;28;20040;-78
2021/10/20 04:13:03;;;;;;;12.55;7.30;;;;;;;;;;5096375;28;20047;-78
2021/10/20 04:15:29;;;;;;;13.73;7.97;;;;;;;;;;5096197;28;20036;-78
2021/10/20 04:17:54;;;;;;;9.90;6.55;;;;;;;;;;5095691;28;20038;-79
2021/10/20 04:20:22;;;;;;;13.02;7.45;;;;;;;;;;5095672;28;20113;-78
2021/10/20 04:22:48;;;;;;;11.38;7.30;;;;;;;;;;5095439;28;20046;-79
2021/10/20 04:25:14;;;;;;;11.40;7.25;;;;;;;;;;5096085;28;20406;-78
2021/10/20 04:27:40;;;;;;;12.35;8.43;;;;;;;;;;5095245;28;20047;-79
2021/10/20 04:30:08;;;;;;;12.45;7.93;;;;;;;;;;5095576;28;20032;-79
2021/10/20 04:32:33;;;;;;;14.38;7.43;;;;;;;;;;5096190;28;20119;-79
2021/10/20 04:35:00;;;;;;;12.88;7.68;;;;;;;;;;5096245;28;20090;-79
2021/10/20 04:37:29;;;;;;;11.27;6.72;;;;;;;;;;5098090;28;20044;-79
2021/10/20 04:39:59;;;;;;;11.10;6.88;;;;;;;;;;5098313;28;20077;-79
2021/10/20 04:42:29;;;;;;;11.95;6.57;;;;;;;;;;5097841;28;20036;-80
2021/10/20 04:44:55;;;;;;;13.98;6.95;;;;;;;;;;5097460;28;20036;-79
2021/10/20 04:47:21;;;;;;;12.40;6.85;;;;;;;;;;5097462;28;20093;-80
2021/10/20 04:49:47;;;;;;;11.10;7.07;;;;;;;;;;5098346;28;20095;-79
2021/10/20 04:52:13;;;;;;;11.85;7.32;;;;;;;;;;5096145;28;20032;-79
2021/10/20 04:54:39;;;;;;;11.73;7.25;;;;;;;;;;5101157;28;20473;-79
2021/10/20 04:57:05;;;;;;;10.55;7.45;;;;;;;;;;5101261;28;20028;-79
2021/10/20 04:59:34;;;;;;;10.93;7.25;;;;;;;;;;5101939;28;20031;-78
2021/10/20 05:02:01;;;;;;;10.68;7.35;;;;;;;;;;5101683;28;20506;-79
2021/10/20 05:04:27;;;;;;;10.98;6.88;;;;;;;;;;5100379;28;20047;-79
2021/10/20 05:06:53;;;;;;;9.07;7.25;;;;;;;;;;5101754;28;20064;-79
2021/10/20 05:09:19;;;;;;;12.70;7.72;;;;;;;;;;5100278;28;20047;-78
2021/10/20 05:11:44;;;;;;;9.90;6.55;;;;;;;;;;5100941;28;20067;-78
2021/10/20 05:14:10;;;;;;;9.25;7.25;;;;;;;;;;5100738;28;20073;-78
2021/10/20 05:16:35;;;;;;;10.45;7.80;;;;;;;;;;5100471;28;20485;-78
2021/10/20 05:19:01;;;;;;;10.45;6.80;;;;;;;;;;5100678;28;20108;-78
2021/10/20 05:21:27;;;;;;;17.90;7.95;;;;;;;;;;5100445;28;20035;-78
2021/10/20 05:23:52;;;;;;;8.70;6.85;;;;;;;;;;5100958;28;20142;-78
2021/10/20 05:26:18;;;;;;;9.48;7.38;;;;;;;;;;5100399;28;20036;-78
2021/10/20 05:28:44;;;;;;;16.70;8.82;;;;;;;;;;5098884;28;20126;-78
2021/10/20 05:31:09;;;;;;;11.23;8.05;;;;;;;;;;5100097;28;20072;-79
2021/10/20 05:33:35;;;;;;;11.77;8.32;;;;;;;;;;5098330;28;20493;-78
2021/10/20 05:36:00;;;;;;;16.67;8.75;;;;;;;;;;5100096;28;20540;-78
2021/10/20 05:38:26;;;;;;;12.10;8.50;;;;;;;;;;5099707;28;20032;-78
2021/10/20 05:40:51;;;;;;;12.60;9.02;;;;;;;;;;5099691;28;20084;-78
2021/10/20 05:43:18;;;;;;;13.52;8.65;;;;;;;;;;5097954;28;20032;-78
2021/10/20 05:45:44;;;;;;;20.77;10.82;;;;;;;;;;5099522;28;20051;-78
2021/10/20 05:48:09;;;;;;;20.95;12.77;;;;;;;;;;5097548;28;20036;-79
2021/10/20 05:50:35;;;;;;;18.60;11.73;;;;;;;;;;5099823;28;20512;-78
2021/10/20 05:53:00;;;;;;;12.90;8.63;;;;;;;;;;5099380;28;20043;-78
2021/10/20 05:55:26;;;;;;;15.45;8.82;;;;;;;;;;5099439;28;20028;-78
2021/10/20 05:57:51;;;;;;;15.10;9.13;;;;;;;;;;5099173;28;20036;-78
2021/10/20 06:00:16;;;;;;;12.35;8.63;;;;;;;;;;5099078;28;20069;-79
2021/10/20 06:02:42;;;;;;;12.32;8.60;;;;;;;;;;5099236;28;20035;-78
2021/10/20 06:05:08;;;;;;;15.77;10.40;;;;;;;;;;5097644;28;20126;-78
2021/10/20 06:07:44;;;;;;;18.70;11.10;;;;;;;;;;5099425;28;20039;-79
2021/10/20 06:10:11;;;;;;;29.15;13.77;;;;;;;;;;5102406;28;20044;-79
2021/10/20 06:12:37;;;;;;;18.05;11.43;;;;;;;;;;5100532;28;20031;-79
2021/10/20 06:15:04;;;;;;;12.90;8.85;;;;;;;;;;5100179;28;20035;-79
2021/10/20 06:17:30;;;;;;;15.50;8.57;;;;;;;;;;5100181;28;20074;-78
2021/10/20 06:19:55;;;;;;;14.02;9.77;;;;;;;;;;5099594;28;20040;-79
2021/10/20 06:22:20;;;;;;;22.20;11.38;;;;;;;;;;5100532;28;20039;-79
2021/10/20 06:24:46;;;;;;;19.10;11.05;;;;;;;;;;5099465;28;20040;-78
2021/10/20 06:27:11;;;;;;;22.35;10.43;;;;;;;;;;5098788;28;20066;-78
2021/10/20 06:29:36;;;;;;;14.23;9.32;;;;;;;;;;5099891;28;20489;-78
2021/10/20 06:32:04;;;;;;;13.77;7.20;;;;;;;;;;5100141;28;20044;-79
2021/10/20 06:34:29;;;;;;;15.15;7.57;;;;;;;;;;5100093;28;20043;-78
2021/10/20 06:36:55;;;;;;;9.27;7.43;;;;;;;;;;5099296;28;20028;-78
2021/10/20 06:39:21;;;;;;;11.43;6.30;;;;;;;;;;5099328;28;20063;-78
2021/10/20 06:41:47;;;;;;;10.73;6.68;;;;;;;;;;5098707;28;20035;-78
2021/10/20 06:44:13;;;;;;;11.07;6.53;;;;;;;;;;5097128;28;20040;-79
2021/10/20 06:46:38;;;;;;;17.45;8.10;;;;;;;;;;5097339;28;20039;-79
2021/10/20 06:49:03;;;;;;;13.93;7.70;;;;;;;;;;5098454;28;20056;-78
2021/10/20 06:51:29;;;;;;;8.98;6.88;;;;;;;;;;5098452;28;20040;-78
2021/10/20 06:53:54;;;;;;;14.40;7.25;;;;;;;;;;5098543;28;20032;-82
2021/10/20 06:56:20;;;;;;;9.95;6.93;;;;;;;;;;5096174;28;20085;-79
2021/10/20 06:58:45;;;;;;;17.67;10.77;;;;;;;;;;5099082;28;20077;-79
2021/10/20 07:01:10;;;;;;;10.90;7.43;;;;;;;;;;5099015;28;20024;-80
2021/10/20 07:03:36;;;;;;;13.50;9.73;;;;;;;;;;5098914;28;20036;-79
2021/10/20 07:06:01;;;;;;;17.90;12.75;;;;;;;;;;5098591;28;20043;-80
2021/10/20 07:08:26;;;;;;;20.52;16.05;;;;;;;;;;5099175;28;20409;-80
2021/10/20 07:10:51;;;;;;;13.48;10.27;;;;;;;;;;5097013;28;20032;-80
2021/10/20 07:13:17;;;;;;;11.18;7.53;;;;;;;;;;5098374;28;20035;-81
2021/10/20 07:15:43;;;;;;;13.07;7.88;;;;;;;;;;5099452;28;20094;-81
2021/10/20 07:18:08;;;;;;;14.70;10.02;;;;;;;;;;5117756;28;20096;-80
2021/10/20 07:20:34;;;;;;;15.07;10.88;;;;;;;;;;5118627;28;20032;-78
2021/10/20 07:22:59;;;;;;;11.43;7.93;;;;;;;;;;5116968;28;20126;-79
2021/10/20 07:25:25;;;;;;;9.50;6.78;;;;;;;;;;5118377;28;20114;-79
2021/10/20 07:27:51;;;;;;;10.05;6.88;;;;;;;;;;5118760;28;20039;-79
2021/10/20 07:30:16;;;;;;;11.48;6.72;;;;;;;;;;5118081;28;20031;-79
2021/10/20 07:32:43;;;;;;;8.73;5.57;;;;;;;;;;5117905;28;20522;-79
2021/10/20 07:35:09;;;;;;;9.88;6.47;;;;;;;;;;5118231;28;20031;-79
2021/10/20 07:37:35;;;;;;;7.63;4.85;;;;;;;;;;5119264;27;20484;-79
2021/10/20 07:40:01;;;;;;;8.73;4.53;;;;;;;;;;5117978;28;20047;-79
2021/10/20 07:42:27;;;;;;;10.98;5.53;;;;;;;;;;5120403;28;20538;-79
2021/10/20 07:44:52;;;;;;;9.63;5.93;;;;;;;;;;5120491;28;20039;-79
2021/10/20 07:47:20;;;;;;;7.97;4.85;;;;;;;;;;5120078;28;20160;-78
2021/10/20 07:49:46;;;;;;;5.38;3.83;;;;;;;;;;5118726;28;20036;-79
2021/10/20 07:52:14;;;;;;;9.65;4.13;;;;;;;;;;5117300;28;20027;-79
2021/10/20 07:54:40;;;;;;;7.45;3.80;;;;;;;;;;5120917;28;20367;-81
2021/10/20 07:57:05;;;;;;;6.55;3.90;;;;;;;;;;5120082;28;20020;-82
2021/10/20 07:59:31;;;;;;;4.90;3.88;;;;;;;;;;5120661;28;20088;-80
2021/10/20 08:01:56;;;;;;;18.40;3.90;;;;;;;;;;5120109;28;20476;-80
2021/10/20 08:04:22;;;;;;;6.55;4.03;;;;;;;;;;5119398;28;20119;-81
2021/10/20 08:06:48;;;;;;;4.90;3.47;;;;;;;;;;5119889;28;20035;-81
2021/10/20 08:09:13;;;;;;;6.65;3.75;;;;;;;;;;5115265;28;20090;-80
2021/10/20 08:11:39;;;;;;;5.18;3.40;;;;;;;;;;5096183;28;20538;-78
2021/10/20 08:14:04;;;;;;;8.30;3.90;;;;;;;;;;5095267;28;20040;-79
2021/10/20 08:16:30;;;;;;;7.05;3.85;;;;;;;;;;5095005;28;20043;-79
2021/10/20 08:18:56;;;;;;;5.18;3.75;;;;;;;;;;5096736;28;20085;-80
2021/10/20 08:21:21;;;;;;;7.80;3.72;;;;;;;;;;5094236;28;20048;-79
2021/10/20 08:23:47;;;;;;;8.82;3.75;;;;;;;;;;5095671;28;20035;-78
2021/10/20 08:26:13;;;;;;;7.75;3.75;;;;;;;;;;5093901;28;20042;-77
2021/10/20 08:28:38;;;;;;;4.95;3.47;;;;;;;;;;5094336;28;20114;-80
2021/10/20 08:31:04;;;;;;;5.30;3.45;;;;;;;;;;5095481;28;20035;-79
2021/10/20 08:33:30;;;;;;;8.32;3.58;;;;;;;;;;5094922;28;20043;-78
2021/10/20 08:35:55;;;;;;;11.48;3.58;;;;;;;;;;5096067;28;20036;-81
2021/10/20 08:38:20;;;;;;;6.75;3.80;;;;;;;;;;5095468;28;20036;-81
2021/10/20 08:40:47;;;;;;;5.20;3.72;;;;;;;;;;5117231;28;20075;-80
2021/10/20 08:43:17;;;;;;;5.72;3.05;;;;;;;;;;5122490;28;20039;-80
2021/10/20 08:45:44;;;;;;;5.43;3.38;;;;;;;;;;5123240;28;20044;-83
2021/10/20 08:48:11;;;;;;;7.63;3.92;;;;;;;;;;5117921;28;20482;-77
2021/10/20 08:50:37;;;;;;;7.95;3.65;;;;;;;;;;5117658;28;20023;-78
2021/10/20 08:53:03;;;;;;;10.40;3.72;;;;;;;;;;5112857;28;20075;-77
2021/10/20 08:55:30;;;;;;;8.98;3.60;;;;;;;;;;5115908;28;20118;-78
2021/10/20 08:57:56;;;;;;;7.60;3.50;;;;;;;;;;5118408;28;20031;-79
2021/10/20 09:00:23;;;;;;;9.93;4.15;;;;;;;;;;5118231;28;20521;-80
2021/10/20 09:02:49;;;;;;;10.80;4.22;;;;;;;;;;5118561;28;20044;-82
2021/10/20 09:05:20;;;;;;;5.70;3.90;;;;;;;;;;5120484;28;20123;-81
2021/10/20 09:07:47;;;;;;;7.03;4.60;;;;;;;;;;5123290;28;20468;-82
2021/10/20 09:10:14;;;;;;;4.35;3.40;;;;;;;;;;5119387;28;20027;-84
2021/10/20 09:12:40;;;;;;;14.75;3.97;;;;;;;;;;5103786;28;20088;-85
2021/10/20 09:15:19;;;;;;;6.80;4.10;;;;;;;;;;5100927;28;20028;-82
2021/10/20 09:17:48;;;;;;;6.63;3.33;;;;;;;;;;5125502;28;20096;-82
2021/10/20 09:20:31;;;;;;;6.13;3.88;;;;;;;;;;5125679;28;20036;-79
2021/10/20 09:23:01;;;;;;;9.05;4.00;;;;;;;;;;5124021;28;20067;-80
2021/10/20 09:25:57;;;;;;;9.98;4.05;;;;;;;;;;5123689;28;20096;-80
2021/10/20 09:28:27;;;;;;;5.05;3.67;;;;;;;;;;5103940;28;20042;-80
2021/10/20 09:30:57;;;;;;;6.15;3.60;;;;;;;;;;5122117;28;20042;-80
2021/10/20 09:33:24;;;;;;;7.80;3.80;;;;;;;;;;5117840;28;20073;-76
2021/10/20 09:35:49;;;;;;;6.13;3.90;;;;;;;;;;5120312;28;20541;-79
2021/10/20 09:38:15;;;;;;;9.00;3.88;;;;;;;;;;5124992;28;20036;-80
2021/10/20 09:40:44;;;;;;;9.00;3.67;;;;;;;;;;5101192;28;20048;-79
2021/10/20 09:43:12;;;;;;;6.20;3.92;;;;;;;;;;5106689;28;20126;-79
2021/10/20 09:45:40;;;;;;;8.27;3.80;;;;;;;;;;5106236;28;20036;-79
2021/10/20 09:48:20;;;;;;;12.85;4.20;;;;;;;;;;5105932;28;20089;-79
2021/10/20 09:51:03;;;;;;;8.68;3.78;;;;;;;;;;5103316;28;20031;-79
2021/10/20 09:53:30;;;;;;;5.72;3.83;;;;;;;;;;5103164;28;20426;-78
2021/10/20 09:56:00;;;;;;;5.97;3.60;;;;;;;;;;5103374;28;20028;-79
2021/10/20 09:58:25;;;;;;;8.80;4.00;;;;;;;;;;5102800;28;20485;-79
2021/10/20 10:00:55;;;;;;;7.30;3.67;;;;;;;;;;5103919;28;20071;-79
2021/10/20 10:03:21;;;;;;;6.43;4.13;;;;;;;;;;5101283;28;20036;-79
2021/10/20 10:05:46;;;;;;;9.88;4.20;;;;;;;;;;5102846;28;20049;-79
2021/10/20 10:08:12;;;;;;;7.20;4.03;;;;;;;;;;5103213;28;20512;-79
2021/10/20 10:10:38;;;;;;;10.27;4.68;;;;;;;;;;5101753;28;20032;-79
2021/10/20 10:13:12;;;;;;;6.10;4.18;;;;;;;;;;5102778;28;20036;-79
2021/10/20 10:15:39;;;;;;;5.38;4.10;;;;;;;;;;5102678;28;20036;-79
2021/10/20 10:18:06;;;;;;;9.68;3.97;;;;;;;;;;5099838;28;20068;-78
2021/10/20 10:20:38;;;;;;;16.13;8.13;;;;;;;;;;5100942;28;20039;-81
2021/10/20 10:23:06;;;;;;;9.82;5.85;;;;;;;;;;5100279;28;20040;-79
2021/10/20 10:25:38;;;;;;;8.85;4.38;;;;;;;;;;5102795;28;20039;-80
2021/10/20 10:28:22;;;;;;;5.53;3.78;;;;;;;;;;5099709;28;20032;-81
2021/10/20 10:30:54;;;;;;;10.20;4.40;;;;;;;;;;5099295;28;20100;-81
2021/10/20 10:33:26;;;;;;;11.32;4.45;;;;;;;;;;5098968;28;20123;-79
2021/10/20 10:36:09;;;;;;;8.38;4.53;;;;;;;;;;5097778;28;20020;-78
2021/10/20 10:38:36;;;;;;;10.15;4.40;;;;;;;;;;5096967;28;20478;-78
2021/10/20 10:41:23;;;;;;;8.73;4.47;;;;;;;;;;5098119;28;20052;-78
2021/10/20 10:44:01;;;;;;;7.50;4.30;;;;;;;;;;5097650;28;20097;-77
2021/10/20 10:46:45;;;;;;;7.72;4.28;;;;;;;;;;5093845;28;20564;-77
2021/10/20 10:49:31;;;;;;;8.13;4.65;;;;;;;;;;5095127;28;20040;-76
2021/10/20 10:52:34;;;;;;;8.43;4.60;;;;;;;;;;5094726;28;20028;-76
2021/10/20 10:55:13;;;;;;;6.82;3.97;;;;;;;;;;5073419;28;20045;-76
2021/10/20 10:57:59;;;;;;;7.00;4.10;;;;;;;;;;5074872;28;20033;-76
2021/10/20 11:00:29;;;;;;;6.50;4.47;;;;;;;;;;5074017;28;20040;-77
2021/10/20 11:02:59;;;;;;;10.77;4.35;;;;;;;;;;5074553;28;20044;-76
2021/10/20 11:05:25;;;;;;;6.95;3.97;;;;;;;;;;5076084;28;20039;-77
2021/10/20 11:07:53;;;;;;;10.35;4.30;;;;;;;;;;5075776;28;20029;-77
2021/10/20 11:10:19;;;;;;;7.82;4.38;;;;;;;;;;5075776;28;20071;-77
2021/10/20 11:12:50;;;;;;;8.32;4.43;;;;;;;;;;5075056;28;20037;-77
2021/10/20 11:15:16;;;;;;;9.23;4.32;;;;;;;;;;5073219;28;20038;-77
2021/10/20 11:17:42;;;;;;;9.20;3.60;;;;;;;;;;5078392;28;20016;-81
2021/10/20 11:20:16;;;;;;;10.98;4.07;;;;;;;;;;5078491;28;20037;-82
2021/10/20 11:22:49;;;;;;;5.22;3.90;;;;;;;;;;5082091;28;20041;-79
2021/10/20 11:25:16;;;;;;;7.80;4.00;;;;;;;;;;5096875;28;20043;-79
2021/10/20 11:27:52;;;;;;;6.55;4.30;;;;;;;;;;5096494;28;20371;-78
2021/10/20 11:30:20;;;;;;;9.80;4.38;;;;;;;;;;5096424;28;20032;-78
2021/10/20 11:32:46;;;;;;;8.02;4.38;;;;;;;;;;5096942;28;20032;-78
2021/10/20 11:35:18;;;;;;;8.70;4.35;;;;;;;;;;5096538;28;20034;-79
2021/10/20 11:37:54;;;;;;;7.80;4.32;;;;;;;;;;5095458;28;20044;-79
2021/10/20 11:40:20;;;;;;;;;;;;;;;;;;5097107;28;20104;-79
2021/10/20 11:42:46;;;;;;;7.05;4.32;;;;;;;;;;5095493;28;19916;-79
2021/10/20 11:45:12;;;;;;;5.95;3.97;;;;;;;;;;5097282;28;20358;-79
2021/10/20 11:47:39;;;;;;;6.38;4.07;;;;;;;;;;5097282;28;20032;-79
2021/10/20 11:50:05;;;;;;;13.13;4.97;;;;;;;;;;5096948;28;20097;-79
2021/10/20 11:52:34;;;;;;;6.50;4.22;;;;;;;;;;5097198;28;20496;-79
2021/10/20 11:55:00;;;;;;;6.80;3.97;;;;;;;;;;5097271;28;20046;-79
2021/10/20 11:57:26;;;;;;;6.22;3.88;;;;;;;;;;5096944;28;20462;-79
2021/10/20 11:59:52;;;;;;;7.63;4.63;;;;;;;;;;5096558;28;20040;-79
2021/10/20 12:02:17;;;;;;;7.90;4.03;;;;;;;;;;5095886;28;20043;-79
2021/10/20 12:04:44;;;;;;;5.72;4.30;;;;;;;;;;5097117;28;20470;-79
2021/10/20 12:07:12;;;;;;;7.90;4.13;;;;;;;;;;5096683;28;20040;-79
2021/10/20 12:09:41;;;;;;;5.25;4.00;;;;;;;;;;5094629;28;20048;-78
2021/10/20 12:12:07;;;;;;;13.93;5.13;;;;;;;;;;5096113;28;20051;-78
2021/10/20 12:14:35;;;;;;;6.40;4.30;;;;;;;;;;5098529;28;20027;-78
2021/10/20 12:17:01;;;;;;;7.07;4.43;;;;;;;;;;5097346;28;20039;-78
2021/10/20 12:19:30;;;;;;;8.50;4.25;;;;;;;;;;5097045;28;20129;-78
2021/10/20 12:21:56;;;;;;;5.60;4.47;;;;;;;;;;5097275;28;20397;-78
2021/10/20 12:24:23;;;;;;;6.65;4.47;;;;;;;;;;5097061;28;20040;-78
2021/10/20 12:26:48;;;;;;;13.50;5.28;;;;;;;;;;5096664;28;20036;-78
2021/10/20 12:29:14;;;;;;;8.95;4.93;;;;;;;;;;5096354;28;20097;-78
2021/10/20 12:31:41;;;;;;;6.20;3.95;;;;;;;;;;5096671;28;20401;-78
2021/10/20 12:34:06;;;;;;;11.75;4.90;;;;;;;;;;5096173;28;20024;-78
2021/10/20 12:36:35;;;;;;;9.82;4.22;;;;;;;;;;5096883;28;20036;-78
2021/10/20 12:39:03;;;;;;;7.25;4.57;;;;;;;;;;5096341;28;20043;-78
2021/10/20 12:41:32;;;;;;;6.32;4.65;;;;;;;;;;5096833;28;20043;-78
2021/10/20 12:44:00;;;;;;;13.40;4.82;;;;;;;;;;5094386;28;20039;-78
2021/10/20 12:46:28;;;;;;;6.30;4.60;;;;;;;;;;5098673;28;20032;-78
2021/10/20 12:48:54;;;;;;;15.50;4.88;;;;;;;;;;5097267;28;20034;-78
2021/10/20 12:51:24;;;;;;;7.63;5.28;;;;;;;;;;5097129;28;20122;-78
2021/10/20 12:53:55;;;;;;;6.88;4.45;;;;;;;;;;5097207;28;20032;-78
2021/10/20 12:56:22;;;;;;;8.43;5.05;;;;;;;;;;5096865;28;20089;-78
2021/10/20 12:58:48;;;;;;;6.45;4.57;;;;;;;;;;5097004;28;20036;-78
2021/10/20 13:01:13;;;;;;;12.05;5.68;;;;;;;;;;5098339;28;20062;-79
2021/10/20 13:03:39;;;;;;;8.15;5.20;;;;;;;;;;5098476;28;20039;-76
2021/10/20 13:06:05;;;;;;;8.45;4.80;;;;;;;;;;5094019;28;20499;-78
2021/10/20 13:08:36;;;;;;;14.52;6.18;;;;;;;;;;5092099;28;20437;-77
2021/10/20 13:11:02;;;;;;;6.47;4.80;;;;;;;;;;5091926;28;20036;-77
2021/10/20 13:13:28;;;;;;;15.63;4.75;;;;;;;;;;5092789;28;20020;-76
2021/10/20 13:15:55;;;;;;;8.45;5.00;;;;;;;;;;5095173;28;20039;-76
2021/10/20 13:18:22;;;;;;;9.43;5.03;;;;;;;;;;5096993;28;20032;-76
2021/10/20 13:20:49;;;;;;;6.90;4.70;;;;;;;;;;5096954;28;20040;-77
2021/10/20 13:23:14;;;;;;;9.52;5.43;;;;;;;;;;5097243;28;20032;-77
2021/10/20 13:25:40;;;;;;;6.72;4.80;;;;;;;;;;5097709;28;20400;-77
2021/10/20 13:28:06;;;;;;;11.15;4.72;;;;;;;;;;5101104;28;20081;-78
2021/10/20 13:30:34;;;;;;;7.85;4.97;;;;;;;;;;5100162;28;20491;-77
2021/10/20 13:33:02;;;;;;;10.27;5.30;;;;;;;;;;5096826;28;20035;-77
2021/10/20 13:35:28;;;;;;;5.47;4.45;;;;;;;;;;5096773;28;20081;-77
2021/10/20 13:37:56;;;;;;;8.45;5.93;;;;;;;;;;5095917;28;20028;-77
2021/10/20 13:40:21;;;;;;;6.72;4.85;;;;;;;;;;5096426;28;20051;-77
2021/10/20 13:42:48;;;;;;;16.30;5.47;;;;;;;;;;5095469;28;20032;-76
2021/10/20 13:45:14;;;;;;;7.22;5.22;;;;;;;;;;5092452;28;20032;-77
2021/10/20 13:47:39;;;;;;;7.45;5.35;;;;;;;;;;5085334;28;20036;-77
2021/10/20 13:50:05;;;;;;;9.95;5.28;;;;;;;;;;5085335;28;20053;-76
2021/10/20 13:52:31;;;;;;;7.13;5.13;;;;;;;;;;5086808;28;20400;-76
2021/10/20 13:54:56;;;;;;;8.23;5.05;;;;;;;;;;5084470;28;20096;-76
2021/10/20 13:57:22;;;;;;;6.97;5.05;;;;;;;;;;5096168;28;20111;-77
2021/10/20 13:59:48;;;;;;;5.47;4.50;;;;;;;;;;5096169;28;20082;-76
2021/10/20 14:02:13;;;;;;;6.50;4.90;;;;;;;;;;5096130;28;20430;-76
2021/10/20 14:04:39;;;;;;;7.28;4.50;;;;;;;;;;5096191;28;20127;-76
2021/10/20 14:07:07;;;;;;;11.68;4.78;;;;;;;;;;5095887;28;20047;-77
2021/10/20 14:09:34;;;;;;;10.43;4.20;;;;;;;;;;5109865;28;20035;-77
2021/10/20 14:12:00;;;;;;;8.77;5.65;;;;;;;;;;5116903;28;20108;-77
2021/10/20 14:14:25;;;;;;;9.02;5.20;;;;;;;;;;5116433;28;20028;-77
2021/10/20 14:16:52;;;;;;;6.30;4.47;;;;;;;;;;5116065;28;20038;-77
2021/10/20 14:19:17;;;;;;;10.63;5.50;;;;;;;;;;5116626;28;20457;-77
2021/10/20 14:21:44;;;;;;;5.50;4.85;;;;;;;;;;5116649;28;20031;-77
2021/10/20 14:24:09;;;;;;;9.57;5.10;;;;;;;;;;5115924;28;20500;-77
2021/10/20 14:26:35;;;;;;;6.57;4.60;;;;;;;;;;5116026;28;20023;-77
2021/10/20 14:29:00;;;;;;;6.90;4.80;;;;;;;;;;5116405;28;20479;-77
2021/10/20 14:31:26;;;;;;;7.05;4.95;;;;;;;;;;5116301;28;20036;-77